Wednesday, August 15, 2018, 7:10 AM EDT
Back to Local

KTEB, Teterboro Airport

Location: South Hackensack, NJ, United States Lat: 40.867
Local Time: 7:10 AM EDT (11:10 GMT) Lon: -74.05
Time Zone: US/Eastern Elev: 9 ft

Show me the last for .
Show Decoded

2018-08-15 06:51 METAR KTEB 151051Z 30003KT 10SM CLR 22/19 A2986 RMK AO2 SLP111 T02220189 =
2018-08-15 05:51 METAR KTEB 150951Z 30004KT 10SM CLR 21/19 A2984 RMK AO2 SLP106 T02110189 =
2018-08-15 04:51 METAR KTEB 150851Z 24005KT 10SM FEW029 SCT038 21/19 A2984 RMK AO2 SLP104
                 T02110194 55000 =
2018-08-15 03:51 METAR KTEB 150751Z 22005KT 10SM CLR 21/19 A2983 RMK AO2 SLP100 T02110194 =
2018-08-15 02:51 METAR KTEB 150651Z 20003KT 10SM FEW065 22/19 A2983 RMK AO2 SLP100 T02170194 =
2018-08-15 01:51 METAR KTEB 150551Z 24006KT 10SM FEW047 22/19 A2984 RMK AO2 SLP104 T02220194
                 10244 20222 55000 =
2018-08-15 00:51 METAR KTEB 150451Z 26006KT 10SM BKN043 22/19 A2983 RMK AO2 SLP102 T02220194
                 402940211 =
2018-08-14 23:51 METAR KTEB 150351Z 24008KT 10SM CLR 22/19 A2984 RMK AO2 SLP105 T02220194 =
2018-08-14 22:51 METAR KTEB 150251Z 22007KT 10SM CLR 22/20 A2984 RMK AO2 SLP104 T02220200 53005 =
2018-08-14 21:51 METAR KTEB 150151Z 24010KT 10SM CLR 23/20 A2984 RMK AO2 SLP105 T02280200 =
2018-08-14 20:51 METAR KTEB 150051Z 21008KT 10SM CLR 23/19 A2982 RMK AO2 SLP098 T02330194 =
2018-08-14 19:51 METAR KTEB 142351Z 23010KT 10SM FEW110 24/19 A2983 RMK AO2 RAB14E33 SLP099 P0000
                 60000 T02440189 10294 20239 53005 =
2018-08-14 18:51 METAR KTEB 142251Z 21010KT 10SM CLR 26/19 A2981 RMK AO2 SLP093 T02560189 =
2018-08-14 17:51 METAR KTEB 142151Z 18007KT 10SM CLR 26/21 A2980 RMK AO2 RAB19E37 SLP091 P0000
                 T02610206 =
2018-08-14 16:51 METAR KTEB 142051Z 22007KT 9SM FEW120 26/21 A2981 RMK AO2 RAE47 TSE47 SLP094
                 P0000 60000 T02610206 55005 =
2018-08-14 15:51 METAR KTEB 141951Z 23007KT 6SM -TSRA BR FEW100 26/20 A2981 RMK AO2 RAB1857 TSB02
                 SLP093 TS FRQ CGICCCCA P0000 T02560200 =
2018-08-14 15:03 METAR KTEB 141903Z 26010KT 10SM -TSRA FEW035 BKN100 OVC120 26/19 A2981 RMK AO2
                 RAB1857 TSB02 TS OCNL CGICCCCA P0000 T02560194 =
2018-08-14 14:51 METAR KTEB 141851Z 28012KT 10SM SCT043 BKN075 OVC100 27/20 A2981 RMK AO2 SLP093
                 T02670200 =
2018-08-14 13:51 METAR KTEB 141751Z 21007KT 10SM SCT039 28/20 A2982 RMK AO2 SLP099 T02830200
                 10289 20228 58015 =
2018-08-14 12:51 METAR KTEB 141651Z 20008KT 10SM SCT032 27/20 A2984 RMK AO2 SLP105 T02720200 =
2018-08-14 11:51 METAR KTEB 141551Z 21008KT 10SM SCT020 27/21 A2986 RMK AO2 SLP112 T02720206 =
2018-08-14 10:51 METAR KTEB 141451Z 23004KT 10SM SCT020 26/21 A2987 RMK AO2 SLP114 T02610211
                 55001 =
2018-08-14 10:47 METAR KTEB 141447Z 17006KT 10SM BKN020 26/21 A2987 RMK AO2 =
2018-08-14 10:21 METAR KTEB 141421Z VRB03KT 10SM FEW020 26/21 A2987 RMK AO2 T02560206 =
2018-08-14 09:51 METAR KTEB 141351Z 19006KT 6SM HZ BKN017 25/21 A2987 RMK AO2 SLP114 T02500206 =
2018-08-14 08:58 METAR KTEB 141258Z 25004KT 4SM BR BKN012 24/22 A2987 =
2018-08-14 08:51 METAR KTEB 141251Z VRB05KT 4SM BR OVC009 24/21 A2987 RMK AO2 SLP114 T02390211 =
2018-08-14 08:48 METAR KTEB 141248Z 26005KT 4SM BR OVC009 24/22 A2987 =
2018-08-14 07:51 METAR KTEB 141151Z 00000KT 2 1/2SM MIFG OVC005 23/22 A2987 RMK AO2 SLP114 70038
                 T02280222 10228 20211 50006 =

Support USWX by starting your Amazon purchase here.